sensor_id;sensor_type;location;lat;lon;timestamp;P1;durP1;ratioP1;P2;durP2;ratioP2
66609;SDS011;53468;48.276;14.416;2022-07-29T00:05:29;5.13;;;3.80;;
66609;SDS011;53468;48.276;14.416;2022-07-29T00:11:01;6.70;;;4.40;;
66609;SDS011;53468;48.276;14.416;2022-07-29T00:16:36;7.25;;;4.32;;
66609;SDS011;53468;48.276;14.416;2022-07-29T00:22:09;5.25;;;3.80;;
66609;SDS011;53468;48.276;14.416;2022-07-29T00:27:47;8.23;;;4.35;;
66609;SDS011;53468;48.276;14.416;2022-07-29T00:33:21;5.68;;;4.03;;
66609;SDS011;53468;48.276;14.416;2022-07-29T00:38:55;5.53;;;4.10;;
66609;SDS011;53468;48.276;14.416;2022-07-29T00:44:28;7.88;;;4.20;;
66609;SDS011;53468;48.276;14.416;2022-07-29T00:50:03;6.05;;;3.65;;
66609;SDS011;53468;48.276;14.416;2022-07-29T00:55:38;6.78;;;4.82;;
66609;SDS011;53468;48.276;14.416;2022-07-29T01:01:11;5.93;;;4.43;;
66609;SDS011;53468;48.276;14.416;2022-07-29T01:06:46;6.88;;;4.25;;
66609;SDS011;53468;48.276;14.416;2022-07-29T01:12:25;6.07;;;4.05;;
66609;SDS011;53468;48.276;14.416;2022-07-29T01:18:04;6.47;;;4.45;;
66609;SDS011;53468;48.276;14.416;2022-07-29T01:23:56;6.30;;;4.60;;
66609;SDS011;53468;48.276;14.416;2022-07-29T01:29:43;7.10;;;4.25;;
66609;SDS011;53468;48.276;14.416;2022-07-29T01:35:22;6.15;;;4.47;;
66609;SDS011;53468;48.276;14.416;2022-07-29T01:40:58;7.57;;;4.40;;
66609;SDS011;53468;48.276;14.416;2022-07-29T01:46:40;8.88;;;4.28;;
66609;SDS011;53468;48.276;14.416;2022-07-29T01:52:21;6.40;;;4.57;;
66609;SDS011;53468;48.276;14.416;2022-07-29T01:57:59;6.35;;;4.63;;
66609;SDS011;53468;48.276;14.416;2022-07-29T02:03:40;5.25;;;4.38;;
66609;SDS011;53468;48.276;14.416;2022-07-29T02:09:19;6.88;;;4.45;;
66609;SDS011;53468;48.276;14.416;2022-07-29T02:14:55;8.00;;;4.50;;
66609;SDS011;53468;48.276;14.416;2022-07-29T02:20:36;5.53;;;4.28;;
66609;SDS011;53468;48.276;14.416;2022-07-29T02:26:12;5.63;;;4.10;;
66609;SDS011;53468;48.276;14.416;2022-07-29T02:31:52;5.18;;;3.67;;
66609;SDS011;53468;48.276;14.416;2022-07-29T02:37:31;6.75;;;4.35;;
66609;SDS011;53468;48.276;14.416;2022-07-29T02:43:06;8.50;;;5.20;;
66609;SDS011;53468;48.276;14.416;2022-07-29T02:48:45;5.82;;;5.05;;
66609;SDS011;53468;48.276;14.416;2022-07-29T02:54:33;7.28;;;4.78;;
66609;SDS011;53468;48.276;14.416;2022-07-29T03:00:13;6.90;;;5.25;;
66609;SDS011;53468;48.276;14.416;2022-07-29T03:05:49;9.45;;;4.50;;
66609;SDS011;53468;48.276;14.416;2022-07-29T03:11:29;6.65;;;4.72;;
66609;SDS011;53468;48.276;14.416;2022-07-29T03:17:08;6.35;;;5.15;;
66609;SDS011;53468;48.276;14.416;2022-07-29T03:22:46;6.50;;;4.88;;
66609;SDS011;53468;48.276;14.416;2022-07-29T03:28:22;6.28;;;4.53;;
66609;SDS011;53468;48.276;14.416;2022-07-29T03:33:58;6.10;;;4.88;;
66609;SDS011;53468;48.276;14.416;2022-07-29T03:39:38;8.15;;;5.80;;
66609;SDS011;53468;48.276;14.416;2022-07-29T03:45:19;6.32;;;4.28;;
66609;SDS011;53468;48.276;14.416;2022-07-29T03:56:32;11.27;;;5.82;;
66609;SDS011;53468;48.276;14.416;2022-07-29T04:02:14;6.05;;;4.28;;
66609;SDS011;53468;48.276;14.416;2022-07-29T04:07:54;6.63;;;4.20;;
66609;SDS011;53468;48.276;14.416;2022-07-29T04:13:30;6.03;;;4.32;;
66609;SDS011;53468;48.276;14.416;2022-07-29T04:19:07;6.97;;;4.72;;
66609;SDS011;53468;48.276;14.416;2022-07-29T04:24:43;8.45;;;5.03;;
66609;SDS011;53468;48.276;14.416;2022-07-29T04:30:18;5.35;;;4.18;;
66609;SDS011;53468;48.276;14.416;2022-07-29T04:35:56;5.53;;;4.25;;
66609;SDS011;53468;48.276;14.416;2022-07-29T04:41:31;6.32;;;4.47;;
66609;SDS011;53468;48.276;14.416;2022-07-29T04:47:07;8.15;;;4.80;;
66609;SDS011;53468;48.276;14.416;2022-07-29T04:52:46;9.43;;;5.35;;
66609;SDS011;53468;48.276;14.416;2022-07-29T04:58:20;6.18;;;4.13;;
66609;SDS011;53468;48.276;14.416;2022-07-29T05:03:55;5.85;;;4.50;;
66609;SDS011;53468;48.276;14.416;2022-07-29T05:09:31;5.25;;;4.15;;
66609;SDS011;53468;48.276;14.416;2022-07-29T05:15:07;6.85;;;4.53;;
66609;SDS011;53468;48.276;14.416;2022-07-29T05:20:41;6.50;;;4.20;;
66609;SDS011;53468;48.276;14.416;2022-07-29T05:26:21;5.07;;;4.40;;
66609;SDS011;53468;48.276;14.416;2022-07-29T05:31:53;5.00;;;4.05;;
66609;SDS011;53468;48.276;14.416;2022-07-29T05:37:26;6.82;;;4.38;;
66609;SDS011;53468;48.276;14.416;2022-07-29T05:43:01;5.75;;;3.80;;
66609;SDS011;53468;48.276;14.416;2022-07-29T05:48:33;7.55;;;4.82;;
66609;SDS011;53468;48.276;14.416;2022-07-29T05:54:07;7.05;;;4.60;;
66609;SDS011;53468;48.276;14.416;2022-07-29T05:59:41;6.85;;;4.45;;
66609;SDS011;53468;48.276;14.416;2022-07-29T06:05:14;6.75;;;3.67;;
66609;SDS011;53468;48.276;14.416;2022-07-29T06:10:46;6.07;;;3.75;;
66609;SDS011;53468;48.276;14.416;2022-07-29T06:16:21;6.90;;;3.95;;
66609;SDS011;53468;48.276;14.416;2022-07-29T06:21:53;6.15;;;4.75;;
66609;SDS011;53468;48.276;14.416;2022-07-29T06:27:26;8.95;;;4.63;;
66609;SDS011;53468;48.276;14.416;2022-07-29T06:33:01;5.43;;;3.92;;
66609;SDS011;53468;48.276;14.416;2022-07-29T06:38:33;6.90;;;4.38;;
66609;SDS011;53468;48.276;14.416;2022-07-29T06:44:06;6.40;;;4.15;;
66609;SDS011;53468;48.276;14.416;2022-07-29T06:49:39;6.72;;;3.50;;
66609;SDS011;53468;48.276;14.416;2022-07-29T06:55:11;4.70;;;3.70;;
66609;SDS011;53468;48.276;14.416;2022-07-29T07:00:44;7.15;;;4.07;;
66609;SDS011;53468;48.276;14.416;2022-07-29T07:06:18;7.10;;;4.90;;
66609;SDS011;53468;48.276;14.416;2022-07-29T07:11:50;8.95;;;4.63;;
66609;SDS011;53468;48.276;14.416;2022-07-29T07:17:22;6.15;;;4.45;;
66609;SDS011;53468;48.276;14.416;2022-07-29T07:22:56;6.93;;;4.43;;
66609;SDS011;53468;48.276;14.416;2022-07-29T07:28:28;6.68;;;4.43;;
66609;SDS011;53468;48.276;14.416;2022-07-29T07:34:00;6.88;;;3.58;;
66609;SDS011;53468;48.276;14.416;2022-07-29T07:39:34;6.15;;;4.10;;
66609;SDS011;53468;48.276;14.416;2022-07-29T07:45:06;7.97;;;4.68;;
66609;SDS011;53468;48.276;14.416;2022-07-29T07:50:40;6.03;;;4.20;;
66609;SDS011;53468;48.276;14.416;2022-07-29T07:56:15;7.18;;;5.10;;
66609;SDS011;53468;48.276;14.416;2022-07-29T08:01:47;6.93;;;4.90;;
66609;SDS011;53468;48.276;14.416;2022-07-29T08:07:19;7.90;;;4.60;;
66609;SDS011;53468;48.276;14.416;2022-07-29T08:12:53;7.60;;;4.55;;
66609;SDS011;53468;48.276;14.416;2022-07-29T08:18:25;6.38;;;4.90;;
66609;SDS011;53468;48.276;14.416;2022-07-29T08:23:58;6.05;;;4.53;;
66609;SDS011;53468;48.276;14.416;2022-07-29T08:29:45;8.52;;;5.03;;
66609;SDS011;53468;48.276;14.416;2022-07-29T08:35:18;7.10;;;4.95;;
66609;SDS011;53468;48.276;14.416;2022-07-29T08:40:50;7.78;;;4.65;;
66609;SDS011;53468;48.276;14.416;2022-07-29T08:46:24;7.55;;;4.93;;
66609;SDS011;53468;48.276;14.416;2022-07-29T08:51:57;6.72;;;4.88;;
66609;SDS011;53468;48.276;14.416;2022-07-29T08:57:31;7.15;;;5.10;;
66609;SDS011;53468;48.276;14.416;2022-07-29T09:03:14;10.82;;;5.93;;
66609;SDS011;53468;48.276;14.416;2022-07-29T09:08:53;13.95;;;5.00;;
66609;SDS011;53468;48.276;14.416;2022-07-29T09:14:29;6.18;;;5.15;;
66609;SDS011;53468;48.276;14.416;2022-07-29T09:20:09;8.10;;;4.95;;
66609;SDS011;53468;48.276;14.416;2022-07-29T09:25:42;5.50;;;4.40;;
66609;SDS011;53468;48.276;14.416;2022-07-29T09:31:15;8.02;;;4.70;;
66609;SDS011;53468;48.276;14.416;2022-07-29T09:36:49;6.15;;;4.15;;
66609;SDS011;53468;48.276;14.416;2022-07-29T09:42:29;8.68;;;4.85;;
66609;SDS011;53468;48.276;14.416;2022-07-29T09:48:12;6.28;;;4.68;;
66609;SDS011;53468;48.276;14.416;2022-07-29T09:53:47;7.32;;;4.53;;
66609;SDS011;53468;48.276;14.416;2022-07-29T09:59:20;9.00;;;5.22;;
66609;SDS011;53468;48.276;14.416;2022-07-29T10:04:56;8.57;;;5.13;;
66609;SDS011;53468;48.276;14.416;2022-07-29T10:10:30;6.30;;;4.20;;
66609;SDS011;53468;48.276;14.416;2022-07-29T10:16:11;6.70;;;4.97;;
66609;SDS011;53468;48.276;14.416;2022-07-29T10:27:17;6.78;;;4.45;;
66609;SDS011;53468;48.276;14.416;2022-07-29T10:33:02;8.02;;;5.22;;
66609;SDS011;53468;48.276;14.416;2022-07-29T10:38:54;6.35;;;4.03;;
66609;SDS011;53468;48.276;14.416;2022-07-29T10:44:33;7.70;;;4.15;;
66609;SDS011;53468;48.276;14.416;2022-07-29T10:50:05;6.10;;;4.78;;
66609;SDS011;53468;48.276;14.416;2022-07-29T10:55:38;12.07;;;4.72;;
66609;SDS011;53468;48.276;14.416;2022-07-29T11:01:28;6.65;;;4.07;;
66609;SDS011;53468;48.276;14.416;2022-07-29T11:07:08;7.50;;;4.82;;
66609;SDS011;53468;48.276;14.416;2022-07-29T11:12:46;9.02;;;4.10;;
66609;SDS011;53468;48.276;14.416;2022-07-29T11:18:20;8.73;;;4.57;;
66609;SDS011;53468;48.276;14.416;2022-07-29T11:23:52;6.68;;;4.95;;
66609;SDS011;53468;48.276;14.416;2022-07-29T11:29:50;6.28;;;5.30;;
66609;SDS011;53468;48.276;14.416;2022-07-29T11:35:25;7.10;;;4.28;;
66609;SDS011;53468;48.276;14.416;2022-07-29T11:46:55;6.88;;;4.53;;
66609;SDS011;53468;48.276;14.416;2022-07-29T11:52:33;8.57;;;4.00;;
66609;SDS011;53468;48.276;14.416;2022-07-29T11:58:07;6.13;;;5.20;;
66609;SDS011;53468;48.276;14.416;2022-07-29T12:03:39;8.48;;;4.10;;
66609;SDS011;53468;48.276;14.416;2022-07-29T12:09:13;7.28;;;4.25;;
66609;SDS011;53468;48.276;14.416;2022-07-29T12:14:45;5.15;;;3.83;;
66609;SDS011;53468;48.276;14.416;2022-07-29T12:20:21;10.98;;;4.45;;
66609;SDS011;53468;48.276;14.416;2022-07-29T12:25:57;5.65;;;4.03;;
66609;SDS011;53468;48.276;14.416;2022-07-29T12:31:30;6.07;;;4.20;;
66609;SDS011;53468;48.276;14.416;2022-07-29T12:37:02;6.03;;;3.80;;
66609;SDS011;53468;48.276;14.416;2022-07-29T12:42:36;5.97;;;3.70;;
66609;SDS011;53468;48.276;14.416;2022-07-29T12:48:09;4.95;;;3.30;;
66609;SDS011;53468;48.276;14.416;2022-07-29T12:54:00;7.45;;;3.83;;
66609;SDS011;53468;48.276;14.416;2022-07-29T12:59:35;4.18;;;3.20;;
66609;SDS011;53468;48.276;14.416;2022-07-29T13:05:08;3.72;;;3.00;;
66609;SDS011;53468;48.276;14.416;2022-07-29T13:10:42;4.00;;;3.25;;
66609;SDS011;53468;48.276;14.416;2022-07-29T13:16:16;5.60;;;3.78;;
66609;SDS011;53468;48.276;14.416;2022-07-29T13:21:48;5.03;;;3.10;;
66609;SDS011;53468;48.276;14.416;2022-07-29T13:27:21;6.40;;;3.50;;
66609;SDS011;53468;48.276;14.416;2022-07-29T13:32:57;3.78;;;3.05;;
66609;SDS011;53468;48.276;14.416;2022-07-29T13:38:29;5.55;;;3.75;;
66609;SDS011;53468;48.276;14.416;2022-07-29T13:44:01;3.50;;;2.78;;
66609;SDS011;53468;48.276;14.416;2022-07-29T13:49:36;5.65;;;3.10;;
66609;SDS011;53468;48.276;14.416;2022-07-29T13:55:09;5.03;;;3.17;;
66609;SDS011;53468;48.276;14.416;2022-07-29T14:00:41;4.05;;;2.78;;
66609;SDS011;53468;48.276;14.416;2022-07-29T14:06:14;3.08;;;2.30;;
66609;SDS011;53468;48.276;14.416;2022-07-29T14:11:47;2.25;;;2.00;;
66609;SDS011;53468;48.276;14.416;2022-07-29T14:17:20;2.45;;;1.98;;
66609;SDS011;53468;48.276;14.416;2022-07-29T14:22:54;4.40;;;2.65;;
66609;SDS011;53468;48.276;14.416;2022-07-29T14:28:26;3.13;;;2.30;;
66609;SDS011;53468;48.276;14.416;2022-07-29T14:33:58;4.45;;;2.13;;
66609;SDS011;53468;48.276;14.416;2022-07-29T14:39:32;3.22;;;2.10;;
66609;SDS011;53468;48.276;14.416;2022-07-29T14:45:06;4.18;;;2.38;;
66609;SDS011;53468;48.276;14.416;2022-07-29T14:50:39;4.68;;;2.50;;
66609;SDS011;53468;48.276;14.416;2022-07-29T14:56:13;3.42;;;1.92;;
66609;SDS011;53468;48.276;14.416;2022-07-29T15:01:46;3.65;;;2.22;;
66609;SDS011;53468;48.276;14.416;2022-07-29T15:07:20;3.90;;;1.83;;
66609;SDS011;53468;48.276;14.416;2022-07-29T15:12:53;5.45;;;2.00;;
66609;SDS011;53468;48.276;14.416;2022-07-29T15:18:25;3.20;;;2.22;;
66609;SDS011;53468;48.276;14.416;2022-07-29T15:23:57;4.00;;;1.92;;
66609;SDS011;53468;48.276;14.416;2022-07-29T15:29:31;2.97;;;2.10;;
66609;SDS011;53468;48.276;14.416;2022-07-29T15:35:04;3.08;;;1.90;;
66609;SDS011;53468;48.276;14.416;2022-07-29T15:40:36;2.80;;;2.00;;
66609;SDS011;53468;48.276;14.416;2022-07-29T15:46:14;3.65;;;1.77;;
66609;SDS011;53468;48.276;14.416;2022-07-29T15:52:04;3.35;;;1.98;;
66609;SDS011;53468;48.276;14.416;2022-07-29T15:57:38;3.50;;;2.00;;
66609;SDS011;53468;48.276;14.416;2022-07-29T16:03:11;4.30;;;2.00;;
66609;SDS011;53468;48.276;14.416;2022-07-29T16:08:43;3.42;;;2.40;;
66609;SDS011;53468;48.276;14.416;2022-07-29T16:14:16;5.38;;;2.97;;
66609;SDS011;53468;48.276;14.416;2022-07-29T16:19:49;4.00;;;3.28;;
66609;SDS011;53468;48.276;14.416;2022-07-29T16:25:22;6.00;;;3.70;;
66609;SDS011;53468;48.276;14.416;2022-07-29T16:30:55;6.15;;;3.47;;
66609;SDS011;53468;48.276;14.416;2022-07-29T16:36:28;6.50;;;3.28;;
66609;SDS011;53468;48.276;14.416;2022-07-29T16:42:00;4.13;;;2.88;;
66609;SDS011;53468;48.276;14.416;2022-07-29T16:47:32;5.25;;;3.20;;
66609;SDS011;53468;48.276;14.416;2022-07-29T16:53:06;2.88;;;2.50;;
66609;SDS011;53468;48.276;14.416;2022-07-29T16:58:38;5.53;;;3.00;;
66609;SDS011;53468;48.276;14.416;2022-07-29T17:04:10;3.67;;;2.47;;
66609;SDS011;53468;48.276;14.416;2022-07-29T17:09:45;5.28;;;2.45;;
66609;SDS011;53468;48.276;14.416;2022-07-29T17:15:17;3.30;;;2.38;;
66609;SDS011;53468;48.276;14.416;2022-07-29T17:20:49;4.60;;;2.63;;
66609;SDS011;53468;48.276;14.416;2022-07-29T17:26:23;3.95;;;2.80;;
66609;SDS011;53468;48.276;14.416;2022-07-29T17:31:56;4.03;;;2.33;;
66609;SDS011;53468;48.276;14.416;2022-07-29T17:37:29;4.75;;;3.10;;
66609;SDS011;53468;48.276;14.416;2022-07-29T17:43:02;2.63;;;2.22;;
66609;SDS011;53468;48.276;14.416;2022-07-29T17:48:38;5.25;;;2.90;;
66609;SDS011;53468;48.276;14.416;2022-07-29T17:54:10;6.20;;;2.95;;
66609;SDS011;53468;48.276;14.416;2022-07-29T17:59:43;3.78;;;2.67;;
66609;SDS011;53468;48.276;14.416;2022-07-29T18:05:16;4.65;;;2.90;;
66609;SDS011;53468;48.276;14.416;2022-07-29T18:10:48;4.03;;;2.72;;
66609;SDS011;53468;48.276;14.416;2022-07-29T18:16:21;4.60;;;3.55;;
66609;SDS011;53468;48.276;14.416;2022-07-29T18:21:54;5.65;;;3.42;;
66609;SDS011;53468;48.276;14.416;2022-07-29T18:27:26;3.78;;;2.72;;
66609;SDS011;53468;48.276;14.416;2022-07-29T18:33:00;3.85;;;3.13;;
66609;SDS011;53468;48.276;14.416;2022-07-29T18:38:32;5.05;;;2.97;;
66609;SDS011;53468;48.276;14.416;2022-07-29T18:44:05;3.60;;;3.17;;
66609;SDS011;53468;48.276;14.416;2022-07-29T18:49:40;6.47;;;3.00;;
66609;SDS011;53468;48.276;14.416;2022-07-29T18:55:12;5.40;;;3.53;;
66609;SDS011;53468;48.276;14.416;2022-07-29T19:00:44;6.95;;;4.20;;
66609;SDS011;53468;48.276;14.416;2022-07-29T19:06:18;4.88;;;3.50;;
66609;SDS011;53468;48.276;14.416;2022-07-29T19:11:50;4.97;;;3.72;;
66609;SDS011;53468;48.276;14.416;2022-07-29T19:17:22;5.63;;;3.85;;
66609;SDS011;53468;48.276;14.416;2022-07-29T19:22:56;5.03;;;4.10;;
66609;SDS011;53468;48.276;14.416;2022-07-29T19:28:28;4.60;;;3.50;;
66609;SDS011;53468;48.276;14.416;2022-07-29T19:34:00;5.45;;;3.67;;
66609;SDS011;53468;48.276;14.416;2022-07-29T19:39:33;6.15;;;4.63;;
66609;SDS011;53468;48.276;14.416;2022-07-29T19:45:12;5.70;;;4.50;;
66609;SDS011;53468;48.276;14.416;2022-07-29T19:50:44;7.05;;;4.65;;
66609;SDS011;53468;48.276;14.416;2022-07-29T19:56:18;5.10;;;4.35;;
66609;SDS011;53468;48.276;14.416;2022-07-29T20:01:50;6.95;;;4.50;;
66609;SDS011;53468;48.276;14.416;2022-07-29T20:07:22;5.20;;;4.28;;
66609;SDS011;53468;48.276;14.416;2022-07-29T20:12:55;5.68;;;4.45;;
66609;SDS011;53468;48.276;14.416;2022-07-29T20:18:28;6.90;;;4.57;;
66609;SDS011;53468;48.276;14.416;2022-07-29T20:24:00;4.85;;;2.80;;
66609;SDS011;53468;48.276;14.416;2022-07-29T20:29:34;6.18;;;3.35;;
66609;SDS011;53468;48.276;14.416;2022-07-29T20:35:07;4.28;;;2.50;;
66609;SDS011;53468;48.276;14.416;2022-07-29T20:40:41;3.05;;;2.25;;
66609;SDS011;53468;48.276;14.416;2022-07-29T20:46:16;3.75;;;2.42;;
66609;SDS011;53468;48.276;14.416;2022-07-29T20:51:48;2.42;;;2.00;;
66609;SDS011;53468;48.276;14.416;2022-07-29T20:57:36;10.35;;;2.00;;
66609;SDS011;53468;48.276;14.416;2022-07-29T21:03:12;6.22;;;2.25;;
66609;SDS011;53468;48.276;14.416;2022-07-29T21:08:46;6.75;;;2.28;;
66609;SDS011;53468;48.276;14.416;2022-07-29T21:14:19;6.28;;;3.72;;
66609;SDS011;53468;48.276;14.416;2022-07-29T21:20:14;8.25;;;4.03;;
66609;SDS011;53468;48.276;14.416;2022-07-29T21:25:49;6.05;;;4.45;;
66609;SDS011;53468;48.276;14.416;2022-07-29T21:31:22;9.00;;;4.78;;
66609;SDS011;53468;48.276;14.416;2022-07-29T21:36:57;10.88;;;5.25;;
66609;SDS011;53468;48.276;14.416;2022-07-29T21:42:36;6.20;;;4.00;;
66609;SDS011;53468;48.276;14.416;2022-07-29T21:48:08;5.53;;;3.55;;
66609;SDS011;53468;48.276;14.416;2022-07-29T21:53:43;6.20;;;4.63;;
66609;SDS011;53468;48.276;14.416;2022-07-29T21:59:15;7.13;;;3.97;;
66609;SDS011;53468;48.276;14.416;2022-07-29T22:04:48;8.35;;;4.90;;
66609;SDS011;53468;48.276;14.416;2022-07-29T22:10:22;9.25;;;5.05;;
66609;SDS011;53468;48.276;14.416;2022-07-29T22:15:55;6.45;;;4.85;;
66609;SDS011;53468;48.276;14.416;2022-07-29T22:21:28;7.35;;;5.00;;
66609;SDS011;53468;48.276;14.416;2022-07-29T22:27:03;9.10;;;5.30;;
66609;SDS011;53468;48.276;14.416;2022-07-29T22:32:36;11.20;;;5.57;;
66609;SDS011;53468;48.276;14.416;2022-07-29T22:38:09;9.35;;;5.05;;
66609;SDS011;53468;48.276;14.416;2022-07-29T22:43:43;8.57;;;5.57;;
66609;SDS011;53468;48.276;14.416;2022-07-29T22:49:16;12.70;;;6.20;;
66609;SDS011;53468;48.276;14.416;2022-07-29T22:54:48;8.65;;;5.43;;
66609;SDS011;53468;48.276;14.416;2022-07-29T23:00:23;9.70;;;6.30;;
66609;SDS011;53468;48.276;14.416;2022-07-29T23:05:56;10.05;;;6.43;;
66609;SDS011;53468;48.276;14.416;2022-07-29T23:11:28;8.82;;;5.50;;
66609;SDS011;53468;48.276;14.416;2022-07-29T23:17:03;6.45;;;4.07;;
66609;SDS011;53468;48.276;14.416;2022-07-29T23:22:36;8.35;;;4.55;;
66609;SDS011;53468;48.276;14.416;2022-07-29T23:28:09;5.47;;;3.35;;
66609;SDS011;53468;48.276;14.416;2022-07-29T23:33:43;6.93;;;3.22;;
66609;SDS011;53468;48.276;14.416;2022-07-29T23:39:16;6.35;;;2.40;;
66609;SDS011;53468;48.276;14.416;2022-07-29T23:45:11;9.18;;;2.63;;
66609;SDS011;53468;48.276;14.416;2022-07-29T23:50:46;3.53;;;2.22;;
66609;SDS011;53468;48.276;14.416;2022-07-29T23:56:19;5.72;;;2.13;;
